createdAt,value
2018-04-07T00:00:19.817Z,42.16
2018-04-07T00:01:19.755Z,42.36
2018-04-07T00:02:19.709Z,42.16
2018-04-07T00:03:19.666Z,42.16
2018-04-07T00:04:19.628Z,42.74
2018-04-07T00:05:19.577Z,42.84
2018-04-07T00:06:19.540Z,42.84
2018-04-07T00:07:19.497Z,42.36
2018-04-07T00:08:19.458Z,42.26
2018-04-07T00:09:19.408Z,42.55
2018-04-07T00:10:19.367Z,42.46
2018-04-07T00:11:19.333Z,42.26
2018-04-07T00:12:19.277Z,42.84
2018-04-07T00:13:19.238Z,42.16
2018-04-07T00:14:19.198Z,42.55
2018-04-07T00:15:19.148Z,42.36
2018-04-07T00:16:19.105Z,42.46
2018-04-07T00:17:19.075Z,42.16
2018-04-07T00:18:19.028Z,42.26
2018-04-07T00:19:18.988Z,42.16
2018-04-07T00:49:43.619Z,45.20
2018-04-07T00:50:43.561Z,44.62
2018-04-07T00:51:43.507Z,45.20
2018-04-07T00:52:43.463Z,45.20
2018-04-07T00:53:43.407Z,45.20
2018-04-07T00:54:43.361Z,44.82
2018-04-07T00:55:43.318Z,44.91
2018-04-07T00:56:43.269Z,44.91
2018-04-07T00:57:43.233Z,44.34
2018-04-07T00:58:43.178Z,44.82
2018-04-07T00:59:43.136Z,44.62
2018-04-07T01:00:43.090Z,44.45
2018-04-07T01:01:43.049Z,44.43
2018-04-07T01:02:42.999Z,44.45
2018-04-07T01:03:42.956Z,43.59
2018-04-07T01:04:42.912Z,44.07
2018-04-07T01:05:42.874Z,44.17
2018-04-07T01:06:42.823Z,43.59
2018-04-07T01:07:42.781Z,43.40
2018-04-07T01:08:42.754Z,43.68
2018-04-07T01:09:42.694Z,43.11
2018-04-07T01:10:42.650Z,43.30
2018-04-07T01:11:42.612Z,42.72
2018-04-07T01:12:42.569Z,42.53
2018-04-07T01:13:42.520Z,43.30
2018-04-07T01:14:42.475Z,42.82
2018-04-07T01:15:42.432Z,43.20
2018-04-07T01:16:42.391Z,43.51
2018-04-07T01:17:42.349Z,42.82
2018-04-07T01:18:42.299Z,42.82
2018-04-07T01:19:42.257Z,42.55
2018-04-07T01:20:42.215Z,42.55
2018-04-07T01:21:42.173Z,42.84
2018-04-07T01:22:42.130Z,42.74
2018-04-07T01:23:42.082Z,42.65
2018-04-07T01:24:42.049Z,42.65
2018-04-07T01:25:42.001Z,42.55
2018-04-07T01:26:41.972Z,42.93
2018-04-07T01:27:41.909Z,43.13
2018-04-07T01:28:41.870Z,42.65
2018-04-07T01:29:41.824Z,42.65
2018-04-07T01:30:41.793Z,42.84
2018-04-07T01:31:41.737Z,42.36
2018-04-07T01:32:41.693Z,42.46
2018-04-07T01:33:41.652Z,42.65
2018-04-07T01:34:41.609Z,42.74
2018-04-07T01:35:41.565Z,42.55
2018-04-07T01:36:41.527Z,42.84
2018-04-07T01:37:41.477Z,43.41
2018-04-07T01:38:41.432Z,43.03
2018-04-07T01:39:41.397Z,42.74
2018-04-07T01:40:41.344Z,42.65
2018-04-07T01:41:41.302Z,42.93
2018-04-07T01:42:41.261Z,42.84
2018-04-07T01:43:41.219Z,42.65
2018-04-07T01:44:41.171Z,42.65
2018-04-07T01:45:41.127Z,42.55
2018-04-07T01:46:41.085Z,42.65
2018-04-07T01:47:41.063Z,42.46
2018-04-07T01:48:49.633Z,42.84
2018-04-07T01:50:41.463Z,42.65
2018-04-07T01:51:34.263Z,42.65
2018-04-07T01:52:34.217Z,42.65
2018-04-07T01:53:34.178Z,42.55
2018-04-07T01:54:34.130Z,42.55
2018-04-07T01:55:34.089Z,42.74
2018-04-07T01:56:34.058Z,42.74
2018-04-07T01:57:34.014Z,42.65
2018-04-07T01:58:33.957Z,42.46
2018-04-07T01:59:33.912Z,42.55
2018-04-07T02:00:33.870Z,42.46
2018-04-07T02:01:33.825Z,42.55
2018-04-07T02:02:33.786Z,42.74
2018-04-07T02:03:33.739Z,42.16
2018-04-07T02:04:33.699Z,42.84
2018-04-07T02:05:33.651Z,42.26
2018-04-07T02:06:33.614Z,42.55
2018-04-07T02:07:33.566Z,42.74
2018-04-07T02:08:33.525Z,42.84
2018-04-07T02:09:33.489Z,42.55
2018-04-07T02:10:33.437Z,42.74
2018-04-07T02:11:33.400Z,42.65
2018-04-07T02:12:33.366Z,42.84
2018-04-07T02:13:33.309Z,43.41
2018-04-07T02:14:33.264Z,42.55
2018-04-07T02:15:33.223Z,42.55
2018-04-07T02:16:33.189Z,42.84
2018-04-07T02:17:33.135Z,42.65
2018-04-07T02:18:33.100Z,42.74
2018-04-07T02:19:33.050Z,42.55
2018-04-07T02:20:33.006Z,42.46
2018-04-07T02:21:32.962Z,42.93
2018-04-07T02:22:32.926Z,42.65
2018-04-07T02:23:32.872Z,42.55
2018-04-07T02:24:32.834Z,42.26
2018-04-07T02:25:32.791Z,42.16
2018-04-07T02:26:32.775Z,42.65
2018-04-07T02:27:32.708Z,42.36
2018-04-07T02:28:32.661Z,42.55
2018-04-07T02:29:32.615Z,42.65
2018-04-07T02:30:32.580Z,42.46
2018-04-07T02:31:32.532Z,42.93
2018-04-07T02:32:32.495Z,42.65
2018-04-07T02:33:32.444Z,42.65
2018-04-07T02:34:32.404Z,42.74
2018-04-07T02:35:32.360Z,42.74
2018-04-07T02:36:32.325Z,42.65
2018-04-07T02:37:32.271Z,42.74
2018-04-07T02:38:32.250Z,42.55
2018-04-07T02:39:32.185Z,43.23
2018-04-07T02:40:32.151Z,42.55
2018-04-07T02:41:32.096Z,42.46
2018-04-07T02:42:32.077Z,42.55
2018-04-07T02:43:32.025Z,42.65
2018-04-07T02:44:31.978Z,42.74
2018-04-07T02:45:31.936Z,42.74
2018-04-07T02:46:31.882Z,42.46
2018-04-07T02:47:31.858Z,42.74
2018-04-07T02:48:31.803Z,42.55
2018-04-07T02:49:31.761Z,42.55
2018-04-07T02:50:31.714Z,42.55
2018-04-07T02:51:31.672Z,42.74
2018-04-07T02:52:31.630Z,42.55
2018-04-07T02:53:31.585Z,42.84
2018-04-07T02:54:31.540Z,42.84
2018-04-07T02:55:31.517Z,42.46
2018-04-07T02:56:31.452Z,42.46
2018-04-07T02:57:31.419Z,42.55
2018-04-07T02:58:31.375Z,42.74
2018-04-07T02:59:31.346Z,42.74
2018-04-07T03:00:31.287Z,42.55
2018-04-07T03:01:31.237Z,42.65
2018-04-07T03:02:31.187Z,42.84
2018-04-07T03:03:31.147Z,42.84
2018-04-07T03:04:31.106Z,42.84
2018-04-07T03:05:31.083Z,42.55
2018-04-07T03:06:31.016Z,42.65
2018-04-07T03:07:30.976Z,42.65
2018-04-07T03:08:30.934Z,42.74
2018-04-07T03:09:30.901Z,43.32
2018-04-07T03:10:30.849Z,42.65
2018-04-07T03:11:30.817Z,42.84
2018-04-07T03:12:30.760Z,42.65
2018-04-07T03:13:30.721Z,42.72
2018-04-07T03:14:30.672Z,42.74
2018-04-07T03:15:30.628Z,42.55
2018-04-07T03:16:30.584Z,42.55
2018-04-07T03:17:30.554Z,43.13
2018-04-07T03:18:30.498Z,43.41
2018-04-07T03:19:30.456Z,42.65
2018-04-07T03:20:30.411Z,42.65
2018-04-07T03:21:30.368Z,42.55
2018-04-07T03:22:30.326Z,42.65
2018-04-07T03:23:30.308Z,42.93
2018-04-07T03:24:30.241Z,42.65
2018-04-07T03:25:30.208Z,42.65
2018-04-07T03:26:30.155Z,43.41
2018-04-07T03:27:30.116Z,42.91
2018-04-07T03:28:30.066Z,42.93
2018-04-07T03:29:30.023Z,43.23
2018-04-07T03:30:29.980Z,42.65
2018-04-07T03:31:29.944Z,43.13
2018-04-07T03:32:29.910Z,42.84
2018-04-07T03:33:29.881Z,43.20
2018-04-07T03:34:29.811Z,42.55
2018-04-07T03:35:29.766Z,43.41
2018-04-07T03:36:29.722Z,42.46
2018-04-07T03:37:29.687Z,42.65
2018-04-07T03:38:29.641Z,42.74
2018-04-07T03:39:29.593Z,42.55
2018-04-07T03:40:29.556Z,42.74
2018-04-07T03:41:29.503Z,42.55
2018-04-07T03:42:29.461Z,42.53
2018-04-07T03:43:29.417Z,43.32
2018-04-07T03:44:29.376Z,42.46
2018-04-07T03:45:29.334Z,42.84
2018-04-07T03:46:29.289Z,42.74
2018-04-07T03:47:29.245Z,42.65
2018-04-07T03:48:29.205Z,43.32
2018-04-07T03:49:29.174Z,42.65
2018-04-07T03:50:29.164Z,43.13
2018-04-07T03:51:29.077Z,42.65
2018-04-07T03:52:29.029Z,42.55
2018-04-07T03:53:28.984Z,42.65
2018-04-07T03:54:28.941Z,43.03
2018-04-07T03:55:28.901Z,42.93
2018-04-07T03:56:28.858Z,42.65
2018-04-07T03:57:28.817Z,42.74
2018-04-07T03:58:28.769Z,43.23
2018-04-07T03:59:28.730Z,42.65
2018-04-07T04:00:28.683Z,42.74
2018-04-07T04:01:28.642Z,42.93
2018-04-07T04:02:28.594Z,42.65
2018-04-07T04:03:28.551Z,42.84
2018-04-07T04:04:28.516Z,43.30
2018-04-07T04:05:28.462Z,43.13
2018-04-07T04:06:28.449Z,43.23
2018-04-07T04:07:28.381Z,42.53
2018-04-07T04:08:28.347Z,43.51
2018-04-07T04:09:28.295Z,43.20
2018-04-07T04:10:28.255Z,43.40
2018-04-07T04:11:28.208Z,43.32
2018-04-07T04:12:28.171Z,42.55
2018-04-07T04:13:28.120Z,43.23
2018-04-07T04:14:28.086Z,43.23
2018-04-07T04:15:28.041Z,42.74
2018-04-07T04:16:27.996Z,42.93
2018-04-07T04:17:27.943Z,43.13
2018-04-07T04:18:27.918Z,42.93
2018-04-07T04:19:27.873Z,43.20
2018-04-07T04:20:27.828Z,42.82
2018-04-07T04:21:27.773Z,43.23
2018-04-07T04:22:27.769Z,43.20
2018-04-07T04:23:27.717Z,43.11
2018-04-07T04:24:27.645Z,43.32
2018-04-07T04:25:27.604Z,43.30
2018-04-07T04:26:27.574Z,43.30
2018-04-07T04:27:27.525Z,42.43
2018-04-07T04:28:27.472Z,43.01
2018-04-07T04:29:27.426Z,43.23
2018-04-07T04:30:27.383Z,42.72
2018-04-07T04:31:27.343Z,42.82
2018-04-07T04:32:27.295Z,43.01
2018-04-07T04:33:27.258Z,42.55
2018-04-07T04:34:27.211Z,43.30
2018-04-07T04:35:27.169Z,43.30
2018-04-07T04:36:27.154Z,43.30
2018-04-07T04:37:27.083Z,42.63
2018-04-07T04:38:27.036Z,43.11
2018-04-07T04:39:26.998Z,42.91
2018-04-07T04:40:26.948Z,43.32
2018-04-07T04:41:27.002Z,43.40
2018-04-07T04:42:26.873Z,43.23
2018-04-07T04:43:26.821Z,42.74
2018-04-07T04:44:26.781Z,43.40
2018-04-07T04:45:26.735Z,43.01
2018-04-07T04:46:26.695Z,42.93
2018-04-07T04:47:26.645Z,42.91
2018-04-07T04:48:26.608Z,43.20
2018-04-07T04:49:26.560Z,42.63
2018-04-07T04:50:26.518Z,43.11
2018-04-07T04:51:26.476Z,43.49
2018-04-07T04:52:26.434Z,42.91
2018-04-07T04:53:26.387Z,43.01
2018-04-07T04:54:26.345Z,43.20
2018-04-07T04:55:26.304Z,43.01
2018-04-07T04:56:26.264Z,43.23
2018-04-07T04:57:26.214Z,42.91
2018-04-07T04:58:26.171Z,43.20
2018-04-07T04:59:26.130Z,42.93
2018-04-07T05:00:26.085Z,43.30
2018-04-07T05:01:26.046Z,42.55
2018-04-07T05:02:25.996Z,43.01
2018-04-07T05:03:25.959Z,42.63
2018-04-07T05:04:25.910Z,43.11
2018-04-07T05:05:25.873Z,43.49
2018-04-07T05:06:25.826Z,43.13
2018-04-07T05:07:25.784Z,42.84
2018-04-07T05:08:25.742Z,43.41
2018-04-07T05:09:25.695Z,43.30
2018-04-07T05:10:25.652Z,43.32
2018-04-07T05:11:25.614Z,43.41
2018-04-07T05:12:25.567Z,43.01
2018-04-07T05:13:25.568Z,43.49
2018-04-07T05:14:25.476Z,43.11
2018-04-07T05:15:25.436Z,43.40
2018-04-07T05:16:25.393Z,43.23
2018-04-07T05:17:25.350Z,43.13
2018-04-07T05:18:25.304Z,43.03
2018-04-07T05:19:25.270Z,43.23
2018-04-07T05:20:25.215Z,43.23
2018-04-07T05:21:25.171Z,43.13
2018-04-07T05:22:25.137Z,43.32
2018-04-07T05:23:25.114Z,43.41
2018-04-07T05:24:25.045Z,43.61
2018-04-07T05:25:25.002Z,43.23
2018-04-07T05:26:24.964Z,43.23
2018-04-07T05:27:24.915Z,43.32
2018-04-07T05:28:24.874Z,43.41
2018-04-07T05:29:24.831Z,43.13
2018-04-07T05:30:24.786Z,43.41
2018-04-07T05:31:24.759Z,43.61
2018-04-07T05:32:24.698Z,43.41
2018-04-07T05:33:24.653Z,43.13
2018-04-07T05:34:24.613Z,43.71
2018-04-07T05:35:24.575Z,43.61
2018-04-07T05:36:24.529Z,43.71
2018-04-07T05:37:24.478Z,44.09
2018-04-07T05:38:24.438Z,43.99
2018-04-07T05:39:24.399Z,44.48
2018-04-07T05:40:24.353Z,43.90
2018-04-07T05:41:24.304Z,44.28
2018-04-07T05:42:24.263Z,44.48
2018-04-07T05:43:24.221Z,44.09
2018-04-07T05:44:24.175Z,44.38
2018-04-07T05:45:24.140Z,44.38
2018-04-07T05:46:24.097Z,44.48
2018-04-07T05:47:24.130Z,44.38
2018-04-07T05:48:24.019Z,44.67
2018-04-07T05:49:23.970Z,44.76
2018-04-07T05:50:23.921Z,44.67
2018-04-07T05:51:23.876Z,44.48
2018-04-07T05:52:23.850Z,44.38
2018-04-07T05:53:23.790Z,44.86
2018-04-07T05:54:23.751Z,44.86
2018-04-07T05:55:23.703Z,44.57
2018-04-07T05:56:23.674Z,44.86
2018-04-07T05:57:23.615Z,45.15
2018-04-07T05:58:23.581Z,45.25
2018-04-07T05:59:23.538Z,45.44
2018-04-07T06:00:23.500Z,45.15
2018-04-07T06:01:23.446Z,45.53
2018-04-07T06:02:23.400Z,45.63
2018-04-07T06:03:23.364Z,45.25
2018-04-07T06:04:23.326Z,45.53
2018-04-07T06:05:23.274Z,46.11
2018-04-07T06:06:23.245Z,45.44
2018-04-07T06:07:23.207Z,45.44
2018-04-07T06:08:23.148Z,45.73
2018-04-07T06:09:23.100Z,45.73
2018-04-07T06:10:23.060Z,45.63
2018-04-07T06:11:23.012Z,45.53
2018-04-07T06:12:22.969Z,45.92
2018-04-07T06:13:22.926Z,45.92
2018-04-07T06:14:22.929Z,45.92
2018-04-07T06:15:22.844Z,45.63
2018-04-07T06:16:22.808Z,45.73
2018-04-07T06:17:22.758Z,45.83
2018-04-07T06:18:22.732Z,45.63
2018-04-07T06:19:22.671Z,45.56
2018-04-07T06:20:22.632Z,45.53
2018-04-07T06:21:22.614Z,45.63
2018-04-07T06:22:22.541Z,45.63
2018-04-07T06:23:22.524Z,45.65
2018-04-07T06:24:22.466Z,46.11
2018-04-07T06:25:22.413Z,45.46
2018-04-07T06:26:22.369Z,45.65
2018-04-07T06:27:22.332Z,45.15
2018-04-07T06:28:22.291Z,45.25
2018-04-07T06:29:22.247Z,45.46
2018-04-07T06:30:22.197Z,45.56
2018-04-07T06:31:22.167Z,45.63
2018-04-07T06:32:22.112Z,45.63
2018-04-07T06:33:22.091Z,45.44
2018-04-07T06:34:22.023Z,45.27
2018-04-07T06:35:22.000Z,45.44
2018-04-07T06:36:21.960Z,45.44
2018-04-07T06:37:21.913Z,45.56
2018-04-07T06:38:21.860Z,45.46
2018-04-07T06:39:21.832Z,45.65
2018-04-07T06:40:21.772Z,45.65
2018-04-07T06:41:21.732Z,45.25
2018-04-07T06:42:21.685Z,45.46
2018-04-07T06:43:21.659Z,45.75
2018-04-07T06:44:21.596Z,45.27
2018-04-07T06:45:21.553Z,45.27
2018-04-07T06:46:21.509Z,45.27
2018-04-07T06:47:21.469Z,45.46
2018-04-07T06:48:21.438Z,45.27
2018-04-07T06:49:21.386Z,45.56
2018-04-07T06:50:21.406Z,45.65
2018-04-07T06:51:21.300Z,45.56
2018-04-07T06:52:21.256Z,45.56
2018-04-07T06:53:21.208Z,45.75
2018-04-07T06:54:21.199Z,45.36
2018-04-07T06:55:21.130Z,45.36
2018-04-07T06:56:21.086Z,44.98
2018-04-07T06:57:21.039Z,45.36
2018-04-07T06:58:21.016Z,45.56
2018-04-07T06:59:20.957Z,45.17
2018-04-07T07:00:20.923Z,45.17
2018-04-07T07:01:20.886Z,45.36
2018-04-07T07:02:20.823Z,45.56
2018-04-07T07:03:20.791Z,45.27
2018-04-07T07:04:20.746Z,45.27
2018-04-07T07:05:20.703Z,45.46
2018-04-07T07:06:20.668Z,45.17
2018-04-07T07:07:20.707Z,45.27
2018-04-07T07:08:20.582Z,44.98
2018-04-07T07:09:20.528Z,45.17
2018-04-07T07:10:20.496Z,45.27
2018-04-07T07:11:20.440Z,45.56
2018-04-07T07:12:20.424Z,45.65
2018-04-07T07:13:20.349Z,45.46
2018-04-07T07:14:20.313Z,45.75
2018-04-07T07:15:20.317Z,45.65
2018-04-07T07:16:20.235Z,45.27
2018-04-07T07:17:20.195Z,45.27
2018-04-07T07:18:20.200Z,45.27
2018-04-07T07:19:20.101Z,45.27
2018-04-07T07:20:20.057Z,45.65
2018-04-07T07:21:20.070Z,45.27
2018-04-07T07:22:19.971Z,45.36
2018-04-07T07:23:19.932Z,45.27
2018-04-07T07:24:19.907Z,45.36
2018-04-07T07:25:19.837Z,45.27
2018-04-07T07:26:19.796Z,45.27
2018-04-07T07:27:19.810Z,45.27
2018-04-07T07:28:19.713Z,45.75
2018-04-07T07:29:19.666Z,45.65
2018-04-07T07:30:19.660Z,45.27
2018-04-07T07:31:19.595Z,45.65
2018-04-07T07:32:19.542Z,45.46
2018-04-07T07:33:19.544Z,45.27
2018-04-07T07:34:19.455Z,45.27
2018-04-07T07:35:19.417Z,44.69
2018-04-07T07:36:19.374Z,44.90
2018-04-07T07:37:19.329Z,44.89
2018-04-07T07:38:19.294Z,45.07
2018-04-07T07:39:19.250Z,45.46
2018-04-07T07:40:19.200Z,45.46
2018-04-07T07:41:19.155Z,45.36
2018-04-07T07:42:19.172Z,45.46
2018-04-07T07:43:19.104Z,44.98
2018-04-07T07:44:19.028Z,45.46
2018-04-07T07:45:18.993Z,44.98
2018-04-07T07:46:18.946Z,45.56
2018-04-07T07:47:18.900Z,45.36
2018-04-07T07:48:18.858Z,45.27
2018-04-07T07:49:18.812Z,44.81
2018-04-07T07:50:18.769Z,44.59
2018-04-07T07:51:18.728Z,45.56
2018-04-07T07:52:18.688Z,44.81
2018-04-07T07:53:18.648Z,44.81
2018-04-07T07:54:18.601Z,44.79
2018-04-07T07:55:18.559Z,44.90
2018-04-07T07:56:18.516Z,44.59
2018-04-07T07:57:18.560Z,45.36
2018-04-07T07:58:18.430Z,45.46
2018-04-07T07:59:18.384Z,45.17
2018-04-07T08:00:18.359Z,45.17
2018-04-07T08:01:18.298Z,45.36
2018-04-07T08:02:18.269Z,45.36
2018-04-07T08:03:18.218Z,45.56
2018-04-07T08:04:18.176Z,45.56
2018-04-07T08:05:18.140Z,45.65
2018-04-07T08:06:18.093Z,45.65
2018-04-07T08:07:18.045Z,45.56
2018-04-07T08:08:18.010Z,45.75
2018-04-07T08:09:17.963Z,45.56
2018-04-07T08:10:18.034Z,45.56
2018-04-07T08:11:17.878Z,45.46
2018-04-07T08:12:17.836Z,45.58
2018-04-07T08:13:17.797Z,45.58
2018-04-07T08:14:17.749Z,45.65
2018-04-07T08:15:17.703Z,45.75
2018-04-07T08:16:17.662Z,45.65
2018-04-07T08:17:17.665Z,45.65
2018-04-07T08:18:17.575Z,45.94
2018-04-07T08:19:17.531Z,45.65
2018-04-07T08:20:17.508Z,45.84
2018-04-07T08:21:17.480Z,45.75
2018-04-07T08:22:17.422Z,46.04
2018-04-07T08:23:17.361Z,45.84
2018-04-07T08:24:17.331Z,46.04
2018-04-07T08:25:17.278Z,46.14
2018-04-07T08:26:17.274Z,46.14
2018-04-07T08:27:17.195Z,46.23
2018-04-07T08:28:17.147Z,46.23
2018-04-07T08:29:17.120Z,46.23
2018-04-07T08:30:17.060Z,46.06
2018-04-07T08:31:17.025Z,46.23
2018-04-07T08:32:17.002Z,46.15
2018-04-07T08:33:17.008Z,46.33
2018-04-07T08:34:16.895Z,46.23
2018-04-07T08:35:16.869Z,46.04
2018-04-07T08:36:16.828Z,46.23
2018-04-07T08:37:16.764Z,46.14
2018-04-07T08:38:16.728Z,46.14
2018-04-07T08:39:16.704Z,46.14
2018-04-07T08:40:16.641Z,46.33
2018-04-07T08:41:16.598Z,46.23
2018-04-07T08:42:16.551Z,46.23
2018-04-07T08:43:16.528Z,46.15
2018-04-07T08:44:16.463Z,46.06
2018-04-07T08:45:16.428Z,46.25
2018-04-07T08:46:16.386Z,46.04
2018-04-07T08:47:16.342Z,46.81
2018-04-07T08:48:16.295Z,46.62
2018-04-07T08:49:16.276Z,47.00
2018-04-07T08:50:16.209Z,47.03
2018-04-07T08:51:16.168Z,46.33
2018-04-07T08:52:16.125Z,46.25
2018-04-07T08:53:16.081Z,46.81
2018-04-07T08:54:16.069Z,46.23
2018-04-07T08:55:15.996Z,46.81
2018-04-07T08:56:15.963Z,46.62
2018-04-07T08:57:15.915Z,46.81
2018-04-07T08:58:15.872Z,46.45
2018-04-07T08:59:15.831Z,46.62
2018-04-07T09:00:15.805Z,46.52
2018-04-07T09:01:15.744Z,46.62
2018-04-07T09:02:15.698Z,46.62
2018-04-07T09:03:15.669Z,46.71
2018-04-07T09:04:15.618Z,46.52
2018-04-07T09:05:15.611Z,46.81
2018-04-07T09:06:15.559Z,46.81
2018-04-07T09:07:15.488Z,46.71
2018-04-07T09:08:15.446Z,46.62
2018-04-07T09:09:15.402Z,46.81
2018-04-07T09:10:15.359Z,46.42
2018-04-07T09:11:15.314Z,46.81
2018-04-07T09:12:15.286Z,46.33
2018-04-07T09:13:15.229Z,46.81
2018-04-07T09:14:15.184Z,46.23
2018-04-07T09:15:15.143Z,46.23
2018-04-07T09:16:15.101Z,46.42
2018-04-07T09:17:15.055Z,46.04
2018-04-07T09:18:15.022Z,46.14
2018-04-07T09:19:14.973Z,46.23
2018-04-07T09:20:14.927Z,45.87
2018-04-07T09:21:14.886Z,45.94
2018-04-07T09:22:14.846Z,45.94
2018-04-07T09:23:14.801Z,46.14
2018-04-07T09:24:14.760Z,45.84
2018-04-07T09:25:14.729Z,46.04
2018-04-07T09:26:14.677Z,46.04
2018-04-07T09:27:14.637Z,46.04
2018-04-07T09:28:14.595Z,46.23
2018-04-07T09:29:14.556Z,46.04
2018-04-07T09:30:14.503Z,46.04
2018-04-07T09:31:14.475Z,45.94
2018-04-07T09:32:14.428Z,45.84
2018-04-07T09:33:14.372Z,45.84
2018-04-07T09:34:14.332Z,45.84
2018-04-07T09:35:14.298Z,45.94
2018-04-07T09:36:14.249Z,46.04
2018-04-07T09:37:14.205Z,45.68
2018-04-07T09:38:14.167Z,46.14
2018-04-07T09:39:14.118Z,45.75
2018-04-07T09:40:14.077Z,46.04
2018-04-07T09:41:14.037Z,46.04
2018-04-07T09:42:13.997Z,46.91
2018-04-07T09:43:13.952Z,46.52
2018-04-07T09:44:13.906Z,46.23
2018-04-07T09:45:13.871Z,46.14
2018-04-07T09:46:13.819Z,46.14
2018-04-07T09:47:13.775Z,46.04
2018-04-07T09:48:13.734Z,46.23
2018-04-07T09:49:13.694Z,46.33
2018-04-07T09:50:13.648Z,46.91
2018-04-07T09:51:13.607Z,46.33
2018-04-07T09:52:13.577Z,46.14
2018-04-07T09:53:13.521Z,46.33
2018-04-07T09:54:13.483Z,46.14
2018-04-07T09:55:13.438Z,46.23
2018-04-07T09:56:13.402Z,46.04
2018-04-07T09:57:13.351Z,46.14
2018-04-07T09:58:13.307Z,45.75
2018-04-07T09:59:13.264Z,45.84
2018-04-07T10:00:13.221Z,45.84
2018-04-07T10:01:13.192Z,45.75
2018-04-07T10:02:13.152Z,45.84
2018-04-07T10:03:13.107Z,45.94
2018-04-07T10:04:13.052Z,46.04
2018-04-07T10:05:13.051Z,45.75
2018-04-07T10:06:12.964Z,46.14
2018-04-07T10:07:12.935Z,45.75
2018-04-07T10:08:12.882Z,46.23
2018-04-07T10:09:12.849Z,46.04
2018-04-07T10:10:12.797Z,46.14
2018-04-07T10:11:12.756Z,46.33
2018-04-07T10:12:12.711Z,46.33
2018-04-07T10:13:12.667Z,46.14
2018-04-07T10:14:12.625Z,46.04
2018-04-07T10:15:12.587Z,46.23
2018-04-07T10:16:12.540Z,45.94
2018-04-07T10:17:12.502Z,45.94
2018-04-07T10:18:12.454Z,45.56
2018-04-07T10:19:12.417Z,45.65
2018-04-07T10:20:12.368Z,45.84
2018-04-07T10:21:12.329Z,45.94
2018-04-07T10:22:12.295Z,45.75
2018-04-07T10:23:12.242Z,46.04
2018-04-07T10:24:12.199Z,45.94
2018-04-07T10:25:12.164Z,45.75
2018-04-07T10:26:12.111Z,45.75
2018-04-07T10:27:12.070Z,45.65
2018-04-07T10:28:12.073Z,45.65
2018-04-07T10:29:11.982Z,46.04
2018-04-07T10:30:11.940Z,45.94
2018-04-07T10:31:11.898Z,45.94
2018-04-07T10:32:11.855Z,45.84
2018-04-07T10:33:11.821Z,46.04
2018-04-07T10:34:11.778Z,45.65
2018-04-07T10:35:11.730Z,45.65
2018-04-07T10:36:11.740Z,45.65
2018-04-07T10:37:11.643Z,45.75
2018-04-07T10:38:11.602Z,45.94
2018-04-07T10:39:11.557Z,45.75
2018-04-07T10:40:11.520Z,45.94
2018-04-07T10:41:11.476Z,45.75
2018-04-07T10:42:11.428Z,45.65
2018-04-07T10:43:11.390Z,45.65
2018-04-07T10:44:11.347Z,45.75
2018-04-07T10:45:11.305Z,45.65
2018-04-07T10:46:11.262Z,45.56
2018-04-07T10:47:11.217Z,45.84
2018-04-07T10:48:11.173Z,45.94
2018-04-07T10:49:11.130Z,45.94
2018-04-07T10:50:11.091Z,45.75
2018-04-07T10:51:11.081Z,45.46
2018-04-07T10:52:11.017Z,45.65
2018-04-07T10:53:10.957Z,45.56
2018-04-07T10:54:10.915Z,45.56
2018-04-07T10:55:10.880Z,45.65
2018-04-07T10:56:10.831Z,45.46
2018-04-07T10:57:10.784Z,45.46
2018-04-07T10:58:10.746Z,45.65
2018-04-07T10:59:10.702Z,45.75
2018-04-07T11:00:10.659Z,45.94
2018-04-07T11:01:10.618Z,45.56
2018-04-07T11:02:10.570Z,45.56
2018-04-07T11:03:10.535Z,45.46
2018-04-07T11:04:10.488Z,45.65
2018-04-07T11:05:10.445Z,45.56
2018-04-07T11:06:10.435Z,45.65
2018-04-07T11:07:10.380Z,45.56
2018-04-07T11:08:10.324Z,45.36
2018-04-07T11:09:10.289Z,45.56
2018-04-07T11:10:10.234Z,45.46
2018-04-07T11:11:10.200Z,45.56
2018-04-07T11:12:10.149Z,45.56
2018-04-07T11:13:10.126Z,45.36
2018-04-07T11:14:10.060Z,45.65
2018-04-07T11:15:10.026Z,45.46
2018-04-07T11:16:09.980Z,45.56
2018-04-07T11:17:09.944Z,45.56
2018-04-07T11:18:09.891Z,45.56
2018-04-07T11:19:09.864Z,45.46
2018-04-07T11:20:09.802Z,45.65
2018-04-07T11:21:09.762Z,45.56
2018-04-07T11:22:09.717Z,45.56
2018-04-07T11:23:09.679Z,45.56
2018-04-07T11:24:09.632Z,45.56
2018-04-07T11:25:09.602Z,45.65
2018-04-07T11:26:09.547Z,45.56
2018-04-07T11:27:09.510Z,45.46
2018-04-07T11:28:09.462Z,45.65
2018-04-07T11:29:09.426Z,45.56
2018-04-07T11:30:09.379Z,45.46
2018-04-07T11:31:09.334Z,45.46
2018-04-07T11:32:09.294Z,45.56
2018-04-07T11:33:09.245Z,45.65
2018-04-07T11:34:09.204Z,45.65
2018-04-07T11:35:09.172Z,45.46
2018-04-07T11:36:09.125Z,45.65
2018-04-07T11:37:09.078Z,45.56
2018-04-07T11:38:09.070Z,45.75
2018-04-07T11:39:08.995Z,45.46
2018-04-07T11:40:08.967Z,45.56
2018-04-07T11:41:08.905Z,45.56
2018-04-07T11:42:08.872Z,45.36
2018-04-07T11:43:08.820Z,45.56
2018-04-07T11:44:08.785Z,45.65
2018-04-07T11:45:08.825Z,45.46
2018-04-07T11:46:08.701Z,45.65
2018-04-07T11:47:08.658Z,45.65
2018-04-07T11:48:08.622Z,45.27
2018-04-07T11:49:08.572Z,45.46
2018-04-07T11:50:08.522Z,45.36
2018-04-07T11:51:08.484Z,45.36
2018-04-07T11:52:17.055Z,45.56
2018-04-07T11:54:02.261Z,45.56
2018-04-07T11:55:02.215Z,45.56
2018-04-07T11:56:56.040Z,45.65
2018-04-07T11:57:55.977Z,45.65
2018-04-07T11:59:48.796Z,45.65
2018-04-07T12:00:48.744Z,45.84
2018-04-07T12:02:41.619Z,45.75
2018-04-07T12:03:41.535Z,45.65
2018-04-07T12:05:35.351Z,45.65
2018-04-07T12:06:35.297Z,45.46
2018-04-07T12:07:35.259Z,45.46
2018-04-07T12:08:35.229Z,45.27
2018-04-07T12:09:35.171Z,45.46
2018-04-07T12:10:35.146Z,45.56
2018-04-07T12:11:35.121Z,45.27
2018-04-07T12:12:35.040Z,45.36
2018-04-07T12:13:34.995Z,45.46
2018-04-07T12:14:34.959Z,45.27
2018-04-07T12:15:34.918Z,45.27
2018-04-07T12:16:34.871Z,45.27
2018-04-07T12:17:34.826Z,45.36
2018-04-07T12:18:34.782Z,45.27
2018-04-07T12:19:34.740Z,45.27
2018-04-07T12:20:34.700Z,45.75
2018-04-07T12:21:34.659Z,45.27
2018-04-07T12:22:34.625Z,45.75
2018-04-07T12:23:34.567Z,45.17
2018-04-07T12:24:34.530Z,45.46
2018-04-07T12:25:34.483Z,45.36
2018-04-07T12:26:34.439Z,45.17
2018-04-07T12:27:34.401Z,45.27
2018-04-07T12:28:34.354Z,45.65
2018-04-07T12:29:34.311Z,45.27
2018-04-07T12:30:34.274Z,45.36
2018-04-07T12:31:34.227Z,45.46
2018-04-07T12:32:34.187Z,45.75
2018-04-07T12:33:34.141Z,45.56
2018-04-07T12:34:34.098Z,45.17
2018-04-07T12:35:34.057Z,45.27
2018-04-07T12:36:34.016Z,45.27
2018-04-07T12:37:33.975Z,45.65
2018-04-07T12:38:33.927Z,45.84
2018-04-07T12:39:33.887Z,45.56
2018-04-07T12:40:33.845Z,45.46
2018-04-07T12:41:33.798Z,45.27
2018-04-07T12:42:33.756Z,45.27
2018-04-07T12:43:33.715Z,45.36
2018-04-07T12:44:33.672Z,44.89
2018-04-07T12:45:33.641Z,45.36
2018-04-07T12:46:33.588Z,45.27
2018-04-07T12:47:33.543Z,44.89
2018-04-07T12:48:33.509Z,45.29
2018-04-07T12:49:33.456Z,45.36
2018-04-07T12:50:33.414Z,45.27
2018-04-07T12:51:33.370Z,45.27
2018-04-07T12:52:33.331Z,45.27
2018-04-07T12:53:33.290Z,45.56
2018-04-07T12:54:33.242Z,45.65
2018-04-07T12:55:33.203Z,45.56
2018-04-07T12:56:33.155Z,45.27
2018-04-07T12:57:33.117Z,45.46
2018-04-07T12:58:33.070Z,45.27
2018-04-07T12:59:33.043Z,45.27
2018-04-07T13:00:32.985Z,45.65
2018-04-07T13:01:32.950Z,45.27
2018-04-07T13:02:32.898Z,45.27
2018-04-07T13:03:32.859Z,45.36
2018-04-07T13:04:32.814Z,44.98
2018-04-07T13:05:32.772Z,45.27
2018-04-07T13:06:32.729Z,45.36
2018-04-07T13:07:32.689Z,45.36
2018-04-07T13:08:32.640Z,45.29
2018-04-07T13:09:32.603Z,45.56
2018-04-07T13:10:32.559Z,45.27
2018-04-07T13:11:32.514Z,45.46
2018-04-07T13:12:32.474Z,45.77
2018-04-07T13:13:32.428Z,45.56
2018-04-07T13:14:32.391Z,45.56
2018-04-07T13:15:32.357Z,45.46
2018-04-07T13:16:32.301Z,45.56
2018-04-07T13:17:32.261Z,45.27
2018-04-07T13:18:32.217Z,45.29
2018-04-07T13:19:32.179Z,45.56
2018-04-07T13:20:32.129Z,45.56
2018-04-07T13:21:32.090Z,45.56
2018-04-07T13:22:32.044Z,45.36
2018-04-07T13:23:32.010Z,45.46
2018-04-07T13:24:31.956Z,45.27
2018-04-07T13:25:31.915Z,45.36
2018-04-07T13:26:31.874Z,45.46